Time,TemperatureF,DewpointF,PressureIn,WindDirection,WindDirectionDegrees,WindSpeedMPH,WindSpeedGustMPH,Humidity,HourlyPrecipIn,Conditions,Clouds,dailyrainin,SoftwareType,DateUTC
2013-08-10 00:11:00,69.0,67.0,-100.00,WSW,250,4.0,4.0,95,-99.99,,,-99.99,,2013-08-10 05:11:00,
2013-08-10 00:22:00,69.0,67.0,-100.00,WSW,250,4.0,4.0,95,-99.99,,,-99.99,,2013-08-10 05:22:00,
2013-08-10 00:32:00,68.0,67.0,-100.00,West,265,4.0,5.0,95,-99.99,,,-99.99,,2013-08-10 05:32:00,
2013-08-10 00:43:00,68.0,67.0,-100.00,West,260,6.0,6.0,95,-99.99,,,-99.99,,2013-08-10 05:43:00,
2013-08-10 00:52:00,68.0,67.0,-100.00,West,260,6.0,6.0,95,-99.99,,,-99.99,,2013-08-10 05:52:00,
2013-08-10 01:02:00,68.0,67.0,-100.00,West,260,4.0,5.0,95,-99.99,,,-99.99,,2013-08-10 06:02:00,
2013-08-10 01:11:00,68.0,66.0,-100.00,WSW,250,4.0,6.0,95,-99.99,,,-99.99,,2013-08-10 06:11:00,
2013-08-10 01:22:00,68.0,66.0,-100.00,WSW,250,4.0,6.0,95,-99.99,,,-99.99,,2013-08-10 06:22:00,
2013-08-10 01:32:00,68.0,67.0,-100.00,West,260,4.0,6.0,95,-99.99,,,-99.99,,2013-08-10 06:32:00,
2013-08-10 01:53:00,68.0,66.0,-100.00,WSW,255,4.0,5.0,95,-99.99,,,-99.99,,2013-08-10 06:53:00,
2013-08-10 02:12:00,68.0,66.0,-100.00,West,265,4.0,6.0,95,-99.99,,,-99.99,,2013-08-10 07:12:00,
2013-08-10 02:22:00,68.0,66.0,-100.00,West,265,4.0,6.0,95,-99.99,,,-99.99,,2013-08-10 07:22:00,
2013-08-10 02:33:00,68.0,66.0,-100.00,West,275,6.0,7.0,95,-99.99,,,-99.99,,2013-08-10 07:33:00,
2013-08-10 02:43:00,68.0,66.0,-100.00,West,275,4.0,6.0,96,-99.99,,,-99.99,,2013-08-10 07:43:00,
2013-08-10 02:52:00,68.0,66.0,-100.00,West,275,4.0,6.0,96,-99.99,,,-99.99,,2013-08-10 07:52:00,
2013-08-10 03:12:00,67.0,66.0,-100.00,West,260,4.0,5.0,96,-99.99,,,-99.99,,2013-08-10 08:12:00,
2013-08-10 03:22:00,67.0,66.0,-100.00,West,260,4.0,5.0,96,-99.99,,,-99.99,,2013-08-10 08:22:00,
2013-08-10 03:32:00,67.0,66.0,-100.00,WNW,300,4.0,4.0,96,-99.99,,,-99.99,,2013-08-10 08:32:00,
2013-08-10 03:43:00,67.0,66.0,-100.00,NW,305,4.0,6.0,96,-99.99,,,-99.99,,2013-08-10 08:43:00,
2013-08-10 03:53:00,67.0,66.0,-100.00,NW,305,4.0,6.0,96,-99.99,,,-99.99,,2013-08-10 08:53:00,
2013-08-10 04:02:00,67.0,66.0,-100.00,WNW,295,4.0,4.0,96,-99.99,,,-99.99,,2013-08-10 09:02:00,
2013-08-10 04:12:00,67.0,66.0,-100.00,NW,315,6.0,6.0,96,-99.99,,,-99.99,,2013-08-10 09:12:00,
2013-08-10 04:22:00,67.0,66.0,-100.00,NW,315,6.0,6.0,96,-99.99,,,-99.99,,2013-08-10 09:22:00,
2013-08-10 04:32:00,68.0,67.0,-100.00,NW,325,6.0,8.0,96,-99.99,,,-99.99,,2013-08-10 09:32:00,
2013-08-10 04:43:00,68.0,67.0,-100.00,NW,320,5.0,8.0,95,-99.99,,,-99.99,,2013-08-10 09:43:00,
2013-08-10 04:52:00,68.0,67.0,-100.00,NW,320,5.0,8.0,95,-99.99,,,-99.99,,2013-08-10 09:52:00,
2013-08-10 05:11:00,67.0,65.0,-100.00,NNW,330,6.0,8.0,92,-99.99,,,-99.99,,2013-08-10 10:11:00,
2013-08-10 05:22:00,67.0,65.0,-100.00,NNW,330,6.0,8.0,92,-99.99,,,-99.99,,2013-08-10 10:22:00,
2013-08-10 05:33:00,67.0,64.0,-100.00,NNW,335,7.0,8.0,90,-99.99,,,-99.99,,2013-08-10 10:33:00,
2013-08-10 05:44:00,66.0,63.0,-100.00,NNW,335,7.0,9.0,90,-99.99,,,-99.99,,2013-08-10 10:44:00,
2013-08-10 05:53:00,66.0,63.0,-100.00,NNW,335,7.0,9.0,90,-99.99,,,-99.99,,2013-08-10 10:53:00,
2013-08-10 06:11:00,65.0,63.0,-100.00,NNW,335,7.0,8.0,93,-99.99,,,-99.99,,2013-08-10 11:11:00,
2013-08-10 06:22:00,65.0,63.0,-100.00,NNW,335,7.0,8.0,93,-99.99,,,-99.99,,2013-08-10 11:22:00,
2013-08-10 06:33:00,65.0,63.0,-100.00,NNW,335,5.0,6.0,94,-99.99,,,-99.99,,2013-08-10 11:33:00,
2013-08-10 06:43:00,64.0,63.0,-100.00,NNW,340,6.0,7.0,95,-99.99,,,-99.99,,2013-08-10 11:43:00,
2013-08-10 06:53:00,64.0,63.0,-100.00,NNW,340,6.0,7.0,95,-99.99,,,-99.99,,2013-08-10 11:53:00,
2013-08-10 07:11:00,65.0,64.0,-100.00,NNW,335,4.0,4.0,94,-99.99,,,-99.99,,2013-08-10 12:11:00,
2013-08-10 07:22:00,65.0,64.0,-100.00,NNW,335,4.0,4.0,94,-99.99,,,-99.99,,2013-08-10 12:22:00,
2013-08-10 07:32:00,67.0,64.0,-100.00,NNW,345,4.0,5.0,90,-99.99,,,-99.99,,2013-08-10 12:32:00,
2013-08-10 07:42:00,67.0,63.0,-100.00,NNW,340,5.0,7.0,87,-99.99,,,-99.99,,2013-08-10 12:42:00,
2013-08-10 07:52:00,67.0,63.0,-100.00,NNW,340,5.0,7.0,87,-99.99,,,-99.99,,2013-08-10 12:52:00,
2013-08-10 08:11:00,69.0,63.0,-100.00,NNW,345,7.0,10.0,81,-99.99,,,-99.99,,2013-08-10 13:11:00,
2013-08-10 08:21:00,69.0,63.0,-100.00,NNW,345,7.0,10.0,81,-99.99,,,-99.99,,2013-08-10 13:21:00,
2013-08-10 08:32:00,70.0,63.0,-100.00,North,350,5.0,7.0,78,-99.99,,,-99.99,,2013-08-10 13:32:00,
2013-08-10 08:43:00,71.0,62.0,-100.00,North,350,4.0,6.0,73,-99.99,,,-99.99,,2013-08-10 13:43:00,
2013-08-10 08:52:00,71.0,62.0,-100.00,North,350,4.0,6.0,73,-99.99,,,-99.99,,2013-08-10 13:52:00,
2013-08-10 09:12:00,74.0,62.0,-100.00,North,0,2.0,4.0,65,-99.99,,,-99.99,,2013-08-10 14:12:00,
2013-08-10 09:22:00,74.0,62.0,-100.00,North,0,2.0,4.0,65,-99.99,,,-99.99,,2013-08-10 14:22:00,
2013-08-10 09:33:00,74.0,61.0,-100.00,NNE,20,4.0,6.0,63,-99.99,,,-99.99,,2013-08-10 14:33:00,
2013-08-10 09:43:00,76.0,62.0,-100.00,NW,325,3.0,5.0,61,-99.99,,,-99.99,,2013-08-10 14:43:00,
2013-08-10 09:53:00,76.0,62.0,-100.00,NW,325,3.0,5.0,61,-99.99,,,-99.99,,2013-08-10 14:53:00,
2013-08-10 10:12:00,78.0,61.0,-100.00,NW,320,2.0,6.0,56,-99.99,,,-99.99,,2013-08-10 15:12:00,
2013-08-10 10:22:00,78.0,61.0,-100.00,NW,320,2.0,6.0,56,-99.99,,,-99.99,,2013-08-10 15:22:00,
2013-08-10 10:43:00,80.0,61.0,-100.00,NW,305,4.0,8.0,52,-99.99,,,-99.99,,2013-08-10 15:43:00,
2013-08-10 10:52:00,80.0,61.0,-100.00,NW,305,4.0,8.0,52,-99.99,,,-99.99,,2013-08-10 15:52:00,
2013-08-10 11:01:00,80.0,60.0,-100.00,NNW,330,6.0,10.0,51,-99.99,,,-99.99,,2013-08-10 16:01:00,
2013-08-10 11:11:00,80.0,59.0,-100.00,North,5,6.0,9.0,49,-99.99,,,-99.99,,2013-08-10 16:11:00,
2013-08-10 11:22:00,80.0,59.0,-100.00,North,5,6.0,9.0,49,-99.99,,,-99.99,,2013-08-10 16:22:00,
2013-08-10 11:32:00,80.0,58.0,-100.00,NNW,345,6.0,11.0,47,-99.99,,,-99.99,,2013-08-10 16:32:00,
2013-08-10 11:43:00,80.0,57.0,-100.00,NW,315,7.0,12.0,45,-99.99,,,-99.99,,2013-08-10 16:43:00,
2013-08-10 11:53:00,80.0,57.0,-100.00,NW,315,7.0,12.0,45,-99.99,,,-99.99,,2013-08-10 16:53:00,
2013-08-10 12:12:00,80.0,58.0,-100.00,NNW,335,4.0,11.0,47,-99.99,,,-99.99,,2013-08-10 17:12:00,
2013-08-10 12:22:00,80.0,58.0,-100.00,NNW,335,4.0,11.0,47,-99.99,,,-99.99,,2013-08-10 17:22:00,
2013-08-10 12:33:00,83.0,59.0,-100.00,NW,310,7.0,11.0,45,-99.99,,,-99.99,,2013-08-10 17:33:00,
2013-08-10 12:43:00,83.0,60.0,-100.00,West,270,4.0,9.0,45,-99.99,,,-99.99,,2013-08-10 17:43:00,
2013-08-10 12:52:00,83.0,60.0,-100.00,West,270,4.0,9.0,45,-99.99,,,-99.99,,2013-08-10 17:52:00,
2013-08-10 13:01:00,82.0,58.0,-100.00,NNW,340,6.0,9.0,43,-99.99,,,-99.99,,2013-08-10 18:01:00,
2013-08-10 13:11:00,83.0,60.0,-100.00,NW,310,7.0,11.0,46,-99.99,,,-99.99,,2013-08-10 18:11:00,
2013-08-10 13:23:00,83.0,60.0,-100.00,NW,310,7.0,11.0,46,-99.99,,,-99.99,,2013-08-10 18:23:00,
2013-08-10 13:32:00,82.0,58.0,-100.00,North,355,9.0,11.0,44,-99.99,,,-99.99,,2013-08-10 18:32:00,
2013-08-10 13:44:00,82.0,58.0,-100.00,North,0,6.0,11.0,45,-99.99,,,-99.99,,2013-08-10 18:44:00,
2013-08-10 13:52:00,82.0,58.0,-100.00,North,0,6.0,11.0,45,-99.99,,,-99.99,,2013-08-10 18:52:00,
2013-08-10 14:11:00,85.0,61.0,-100.00,West,280,6.0,16.0,45,-99.99,,,-99.99,,2013-08-10 19:11:00,
2013-08-10 14:22:00,85.0,61.0,-100.00,West,280,6.0,16.0,45,-99.99,,,-99.99,,2013-08-10 19:22:00,
2013-08-10 14:33:00,83.0,59.0,-100.00,WNW,295,7.0,10.0,44,-99.99,,,-99.99,,2013-08-10 19:33:00,
2013-08-10 14:44:00,83.0,58.0,-100.00,NW,325,5.0,13.0,43,-99.99,,,-99.99,,2013-08-10 19:44:00,
2013-08-10 14:53:00,83.0,58.0,-100.00,NW,325,5.0,13.0,43,-99.99,,,-99.99,,2013-08-10 19:53:00,
2013-08-10 15:12:00,83.0,59.0,-100.00,NNW,345,11.0,15.0,45,-99.99,,,-99.99,,2013-08-10 20:12:00,
2013-08-10 15:22:00,83.0,59.0,-100.00,NNW,345,11.0,15.0,45,-99.99,,,-99.99,,2013-08-10 20:22:00,
2013-08-10 15:33:00,83.0,59.0,-100.00,WNW,295,6.0,8.0,45,-99.99,,,-99.99,,2013-08-10 20:33:00,
2013-08-10 15:43:00,83.0,59.0,-100.00,NNW,330,8.0,15.0,43,-99.99,,,-99.99,,2013-08-10 20:43:00,
2013-08-10 15:53:00,83.0,59.0,-100.00,NNW,330,8.0,15.0,43,-99.99,,,-99.99,,2013-08-10 20:53:00,
2013-08-10 16:12:00,84.0,59.0,-100.00,WNW,295,6.0,11.0,43,-99.99,,,-99.99,,2013-08-10 21:12:00,
2013-08-10 16:22:00,84.0,59.0,-100.00,WNW,295,6.0,11.0,43,-99.99,,,-99.99,,2013-08-10 21:22:00,
2013-08-10 16:32:00,84.0,59.0,-100.00,NW,320,6.0,11.0,43,-99.99,,,-99.99,,2013-08-10 21:32:00,
2013-08-10 16:42:00,83.0,58.0,-100.00,North,0,4.0,11.0,43,-99.99,,,-99.99,,2013-08-10 21:42:00,
2013-08-10 16:52:00,83.0,58.0,-100.00,North,0,4.0,11.0,43,-99.99,,,-99.99,,2013-08-10 21:52:00,
2013-08-10 17:11:00,83.0,58.0,-100.00,NNW,330,9.0,12.0,43,-99.99,,,-99.99,,2013-08-10 22:11:00,
2013-08-10 17:21:00,83.0,58.0,-100.00,NNW,330,9.0,12.0,43,-99.99,,,-99.99,,2013-08-10 22:21:00,
2013-08-10 17:32:00,82.0,59.0,-100.00,NW,305,9.0,13.0,45,-99.99,,,-99.99,,2013-08-10 22:32:00,
2013-08-10 17:43:00,83.0,59.0,-100.00,NNW,330,10.0,13.0,45,-99.99,,,-99.99,,2013-08-10 22:43:00,
2013-08-10 17:52:00,83.0,59.0,-100.00,NNW,330,10.0,13.0,45,-99.99,,,-99.99,,2013-08-10 22:52:00,
2013-08-10 18:12:00,80.0,58.0,-100.00,NW,320,9.0,13.0,47,-99.99,,,-99.99,,2013-08-10 23:12:00,
2013-08-10 18:22:00,80.0,58.0,-100.00,NW,320,9.0,13.0,47,-99.99,,,-99.99,,2013-08-10 23:22:00,
2013-08-10 18:32:00,79.0,58.0,-100.00,NW,320,8.0,14.0,48,-99.99,,,-99.99,,2013-08-10 23:32:00,
2013-08-10 18:43:00,79.0,57.0,-100.00,NW,325,9.0,14.0,47,-99.99,,,-99.99,,2013-08-10 23:43:00,
2013-08-10 18:53:00,79.0,57.0,-100.00,NW,325,9.0,14.0,47,-99.99,,,-99.99,,2013-08-10 23:53:00,
2013-08-10 19:02:00,78.0,56.0,-100.00,NNW,345,11.0,15.0,48,-99.99,,,-99.99,,2013-08-11 00:02:00,
2013-08-10 19:11:00,77.0,55.0,-100.00,North,355,10.0,16.0,48,-99.99,,,-99.99,,2013-08-11 00:11:00,
2013-08-10 19:22:00,77.0,55.0,-100.00,North,355,10.0,16.0,48,-99.99,,,-99.99,,2013-08-11 00:22:00,
2013-08-10 19:32:00,76.0,55.0,-100.00,NNW,345,9.0,13.0,49,-99.99,,,-99.99,,2013-08-11 00:32:00,
2013-08-10 19:52:00,75.0,55.0,-100.00,NNW,345,9.0,11.0,50,-99.99,,,-99.99,,2013-08-11 00:52:00,
2013-08-10 20:11:00,73.0,54.0,-100.00,NNW,340,7.0,9.0,52,-99.99,,,-99.99,,2013-08-11 01:11:00,
2013-08-10 20:22:00,73.0,54.0,-100.00,NNW,340,7.0,9.0,52,-99.99,,,-99.99,,2013-08-11 01:22:00,
2013-08-10 20:32:00,71.0,54.0,-100.00,NNW,340,6.0,9.0,55,-99.99,,,-99.99,,2013-08-11 01:32:00,
2013-08-10 20:43:00,70.0,54.0,-100.00,NNW,345,6.0,9.0,57,-99.99,,,-99.99,,2013-08-11 01:43:00,
2013-08-10 20:54:00,70.0,54.0,-100.00,NNW,345,6.0,9.0,57,-99.99,,,-99.99,,2013-08-11 01:54:00,
2013-08-10 21:11:00,69.0,55.0,-100.00,NNW,340,5.0,7.0,60,-99.99,,,-99.99,,2013-08-11 02:11:00,
2013-08-10 21:22:00,69.0,55.0,-100.00,NNW,340,5.0,7.0,60,-99.99,,,-99.99,,2013-08-11 02:22:00,
2013-08-10 21:32:00,69.0,55.0,-100.00,NNW,340,5.0,7.0,61,-99.99,,,-99.99,,2013-08-11 02:32:00,
2013-08-10 21:43:00,69.0,55.0,-100.00,NNW,340,5.0,6.0,62,-99.99,,,-99.99,,2013-08-11 02:43:00,
2013-08-10 21:57:00,69.0,55.0,-100.00,NNW,340,5.0,6.0,62,-99.99,,,-99.99,,2013-08-11 02:57:00,
2013-08-10 22:17:00,67.0,56.0,-100.00,NNW,335,6.0,6.0,68,-99.99,,,-99.99,,2013-08-11 03:17:00,
2013-08-10 22:27:00,67.0,56.0,-100.00,NNW,335,6.0,6.0,68,-99.99,,,-99.99,,2013-08-11 03:27:00,
2013-08-10 22:35:00,65.0,56.0,-100.00,NW,325,4.0,6.0,72,-99.99,,,-99.99,,2013-08-11 03:35:00,
2013-08-10 22:44:00,64.0,56.0,-100.00,WNW,300,4.0,4.0,76,-99.99,,,-99.99,,2013-08-11 03:44:00,
2013-08-10 22:57:00,64.0,56.0,-100.00,WNW,300,4.0,4.0,76,-99.99,,,-99.99,,2013-08-11 03:57:00,
2013-08-10 23:01:00,64.0,56.0,-100.00,NW,310,4.0,5.0,77,-99.99,,,-99.99,,2013-08-11 04:01:00,
2013-08-10 23:12:00,64.0,56.0,-100.00,NW,315,4.0,4.0,77,-99.99,,,-99.99,,2013-08-11 04:12:00,
2013-08-10 23:22:00,64.0,56.0,-100.00,NW,315,4.0,4.0,77,-99.99,,,-99.99,,2013-08-11 04:22:00,
2013-08-10 23:32:00,63.0,56.0,-100.00,NW,325,4.0,5.0,77,-99.99,,,-99.99,,2013-08-11 04:32:00,
2013-08-10 23:43:00,63.0,56.0,-100.00,NW,325,4.0,5.0,78,-99.99,,,-99.99,,2013-08-11 04:43:00,
2013-08-10 23:53:00,63.0,56.0,-100.00,NW,325,4.0,5.0,78,-99.99,,,-99.99,,2013-08-11 04:53:00,